sensor_id;sensor_type;location;lat;lon;timestamp;temperature;humidity
314;DHT22;143;51.634;7.112;2023-04-03T00:01:00;4.40;1.00
314;DHT22;143;51.634;7.112;2023-04-03T00:03:26;4.30;1.00
314;DHT22;143;51.634;7.112;2023-04-03T00:05:52;4.30;1.00
314;DHT22;143;51.634;7.112;2023-04-03T00:08:18;4.30;1.00
314;DHT22;143;51.634;7.112;2023-04-03T00:10:43;4.60;1.00
314;DHT22;143;51.634;7.112;2023-04-03T00:13:10;4.30;1.00
314;DHT22;143;51.634;7.112;2023-04-03T00:15:36;4.30;1.00
314;DHT22;143;51.634;7.112;2023-04-03T00:18:02;4.60;1.00
314;DHT22;143;51.634;7.112;2023-04-03T00:20:28;4.30;1.00
314;DHT22;143;51.634;7.112;2023-04-03T00:22:53;4.80;1.00
314;DHT22;143;51.634;7.112;2023-04-03T00:25:19;4.80;1.00
314;DHT22;143;51.634;7.112;2023-04-03T00:27:45;4.80;1.00
314;DHT22;143;51.634;7.112;2023-04-03T00:30:14;4.60;1.00
314;DHT22;143;51.634;7.112;2023-04-03T00:32:40;4.90;1.00
314;DHT22;143;51.634;7.112;2023-04-03T00:35:06;4.90;1.00
314;DHT22;143;51.634;7.112;2023-04-03T00:37:32;4.70;1.00
314;DHT22;143;51.634;7.112;2023-04-03T00:39:58;4.60;1.00
314;DHT22;143;51.634;7.112;2023-04-03T00:42:24;4.50;1.00
314;DHT22;143;51.634;7.112;2023-04-03T00:47:19;4.60;1.00
314;DHT22;143;51.634;7.112;2023-04-03T00:49:45;4.50;99.90
314;DHT22;143;51.634;7.112;2023-04-03T00:52:15;4.30;99.90
314;DHT22;143;51.634;7.112;2023-04-03T00:54:42;4.50;99.90
314;DHT22;143;51.634;7.112;2023-04-03T00:57:10;4.50;99.90
314;DHT22;143;51.634;7.112;2023-04-03T00:59:42;4.50;99.90
314;DHT22;143;51.634;7.112;2023-04-03T01:02:10;4.50;99.90
314;DHT22;143;51.634;7.112;2023-04-03T01:04:39;4.50;99.90
314;DHT22;143;51.634;7.112;2023-04-03T01:07:12;4.40;99.90
314;DHT22;143;51.634;7.112;2023-04-03T01:09:40;4.30;99.90
314;DHT22;143;51.634;7.112;2023-04-03T01:12:36;4.50;99.90
314;DHT22;143;51.634;7.112;2023-04-03T01:17:39;4.30;99.90
314;DHT22;143;51.634;7.112;2023-04-03T01:25:42;4.60;99.90
314;DHT22;143;51.634;7.112;2023-04-03T01:28:11;4.30;99.90
314;DHT22;143;51.634;7.112;2023-04-03T01:30:45;4.60;99.90
314;DHT22;143;51.634;7.112;2023-04-03T01:33:12;4.30;99.90
314;DHT22;143;51.634;7.112;2023-04-03T01:35:38;4.30;99.90
314;DHT22;143;51.634;7.112;2023-04-03T01:38:04;4.50;99.90
314;DHT22;143;51.634;7.112;2023-04-03T01:40:30;4.40;99.90
314;DHT22;143;51.634;7.112;2023-04-03T01:42:55;4.10;99.90
314;DHT22;143;51.634;7.112;2023-04-03T01:45:21;4.30;99.90
314;DHT22;143;51.634;7.112;2023-04-03T01:47:47;4.30;99.90
314;DHT22;143;51.634;7.112;2023-04-03T01:50:12;4.20;99.90
314;DHT22;143;51.634;7.112;2023-04-03T01:52:38;4.40;99.90
314;DHT22;143;51.634;7.112;2023-04-03T01:55:04;4.30;99.90
314;DHT22;143;51.634;7.112;2023-04-03T01:57:30;4.10;99.90
314;DHT22;143;51.634;7.112;2023-04-03T01:59:55;4.10;99.90
314;DHT22;143;51.634;7.112;2023-04-03T02:02:21;4.10;99.90
314;DHT22;143;51.634;7.112;2023-04-03T02:04:47;4.10;99.90
314;DHT22;143;51.634;7.112;2023-04-03T02:07:12;4.10;99.90
314;DHT22;143;51.634;7.112;2023-04-03T02:09:38;4.20;99.90
314;DHT22;143;51.634;7.112;2023-04-03T02:12:04;4.30;99.90
314;DHT22;143;51.634;7.112;2023-04-03T02:14:30;4.10;99.90
314;DHT22;143;51.634;7.112;2023-04-03T02:16:55;4.20;99.90
314;DHT22;143;51.634;7.112;2023-04-03T02:19:21;4.30;99.90
314;DHT22;143;51.634;7.112;2023-04-03T02:21:46;4.00;99.90
314;DHT22;143;51.634;7.112;2023-04-03T02:24:12;4.00;99.90
314;DHT22;143;51.634;7.112;2023-04-03T02:26:38;4.10;99.90
314;DHT22;143;51.634;7.112;2023-04-03T02:29:03;4.20;99.90
314;DHT22;143;51.634;7.112;2023-04-03T02:31:29;4.00;99.90
314;DHT22;143;51.634;7.112;2023-04-03T02:33:55;4.20;99.90
314;DHT22;143;51.634;7.112;2023-04-03T02:36:21;3.80;99.90
314;DHT22;143;51.634;7.112;2023-04-03T02:38:46;4.10;99.90
314;DHT22;143;51.634;7.112;2023-04-03T02:41:13;4.20;99.90
314;DHT22;143;51.634;7.112;2023-04-03T02:43:39;3.80;99.90
314;DHT22;143;51.634;7.112;2023-04-03T02:46:05;3.90;99.90
314;DHT22;143;51.634;7.112;2023-04-03T02:48:33;4.00;99.90
314;DHT22;143;51.634;7.112;2023-04-03T02:50:59;3.90;99.90
314;DHT22;143;51.634;7.112;2023-04-03T02:53:24;4.00;99.90
314;DHT22;143;51.634;7.112;2023-04-03T02:55:50;3.90;99.90
314;DHT22;143;51.634;7.112;2023-04-03T02:58:16;4.00;99.90
314;DHT22;143;51.634;7.112;2023-04-03T03:00:42;3.80;99.90
314;DHT22;143;51.634;7.112;2023-04-03T03:03:08;3.80;99.90
314;DHT22;143;51.634;7.112;2023-04-03T03:05:33;3.80;99.90
314;DHT22;143;51.634;7.112;2023-04-03T03:07:59;3.80;99.90
314;DHT22;143;51.634;7.112;2023-04-03T03:10:25;3.80;99.90
314;DHT22;143;51.634;7.112;2023-04-03T03:12:51;3.80;99.90
314;DHT22;143;51.634;7.112;2023-04-03T03:15:16;3.60;99.90
314;DHT22;143;51.634;7.112;2023-04-03T03:17:43;3.60;99.90
314;DHT22;143;51.634;7.112;2023-04-03T03:20:09;3.60;99.90
314;DHT22;143;51.634;7.112;2023-04-03T03:22:35;3.60;99.90
314;DHT22;143;51.634;7.112;2023-04-03T03:25:02;3.50;99.90
314;DHT22;143;51.634;7.112;2023-04-03T03:27:28;3.60;99.90
314;DHT22;143;51.634;7.112;2023-04-03T03:29:54;3.50;99.90
314;DHT22;143;51.634;7.112;2023-04-03T03:32:19;3.60;99.90
314;DHT22;143;51.634;7.112;2023-04-03T03:34:45;3.60;99.90
314;DHT22;143;51.634;7.112;2023-04-03T03:37:11;3.50;99.90
314;DHT22;143;51.634;7.112;2023-04-03T03:39:37;3.50;99.90
314;DHT22;143;51.634;7.112;2023-04-03T03:42:02;3.30;99.90
314;DHT22;143;51.634;7.112;2023-04-03T03:44:28;3.30;99.90
314;DHT22;143;51.634;7.112;2023-04-03T03:46:54;3.50;99.90
314;DHT22;143;51.634;7.112;2023-04-03T03:49:20;3.30;99.90
314;DHT22;143;51.634;7.112;2023-04-03T03:51:46;3.30;99.90
314;DHT22;143;51.634;7.112;2023-04-03T03:54:12;3.30;99.90
314;DHT22;143;51.634;7.112;2023-04-03T03:56:38;3.20;99.90
314;DHT22;143;51.634;7.112;2023-04-03T03:59:04;3.30;99.90
314;DHT22;143;51.634;7.112;2023-04-03T04:01:29;3.40;99.90
314;DHT22;143;51.634;7.112;2023-04-03T04:03:55;3.20;99.90
314;DHT22;143;51.634;7.112;2023-04-03T04:06:21;3.30;99.90
314;DHT22;143;51.634;7.112;2023-04-03T04:08:47;3.30;99.90
314;DHT22;143;51.634;7.112;2023-04-03T04:11:13;3.20;99.90
314;DHT22;143;51.634;7.112;2023-04-03T04:13:38;3.10;99.90
314;DHT22;143;51.634;7.112;2023-04-03T04:16:04;3.10;99.90
314;DHT22;143;51.634;7.112;2023-04-03T04:18:30;3.20;99.90
314;DHT22;143;51.634;7.112;2023-04-03T04:20:56;3.30;99.90
314;DHT22;143;51.634;7.112;2023-04-03T04:23:22;3.10;99.90
314;DHT22;143;51.634;7.112;2023-04-03T04:25:48;3.10;99.90
314;DHT22;143;51.634;7.112;2023-04-03T04:28:15;3.10;1.00
314;DHT22;143;51.634;7.112;2023-04-03T04:30:41;3.00;1.00
314;DHT22;143;51.634;7.112;2023-04-03T04:33:07;3.10;1.00
314;DHT22;143;51.634;7.112;2023-04-03T04:35:33;3.20;1.00
314;DHT22;143;51.634;7.112;2023-04-03T04:37:59;3.10;1.00
314;DHT22;143;51.634;7.112;2023-04-03T04:40:25;3.10;1.00
314;DHT22;143;51.634;7.112;2023-04-03T04:42:51;3.10;1.00
314;DHT22;143;51.634;7.112;2023-04-03T04:45:17;3.10;1.00
314;DHT22;143;51.634;7.112;2023-04-03T04:47:43;3.10;1.00
314;DHT22;143;51.634;7.112;2023-04-03T04:50:09;3.10;1.00
314;DHT22;143;51.634;7.112;2023-04-03T04:52:35;3.00;1.00
314;DHT22;143;51.634;7.112;2023-04-03T04:55:00;3.00;1.00
314;DHT22;143;51.634;7.112;2023-04-03T04:57:26;2.90;1.00
314;DHT22;143;51.634;7.112;2023-04-03T04:59:52;2.70;1.00
314;DHT22;143;51.634;7.112;2023-04-03T05:02:17;2.90;1.00
314;DHT22;143;51.634;7.112;2023-04-03T05:04:43;2.70;1.00
314;DHT22;143;51.634;7.112;2023-04-03T05:07:09;2.80;1.00
314;DHT22;143;51.634;7.112;2023-04-03T05:09:35;2.80;1.00
314;DHT22;143;51.634;7.112;2023-04-03T05:12:00;2.90;1.00
314;DHT22;143;51.634;7.112;2023-04-03T05:14:28;2.70;1.00
314;DHT22;143;51.634;7.112;2023-04-03T05:16:53;2.80;1.00
314;DHT22;143;51.634;7.112;2023-04-03T05:19:20;2.90;1.00
314;DHT22;143;51.634;7.112;2023-04-03T05:21:47;2.80;1.00
314;DHT22;143;51.634;7.112;2023-04-03T05:24:13;2.90;1.00
314;DHT22;143;51.634;7.112;2023-04-03T05:26:39;2.70;1.00
314;DHT22;143;51.634;7.112;2023-04-03T05:29:04;2.80;1.00
314;DHT22;143;51.634;7.112;2023-04-03T05:31:30;2.80;1.00
314;DHT22;143;51.634;7.112;2023-04-03T05:33:56;2.90;1.00
314;DHT22;143;51.634;7.112;2023-04-03T05:36:22;2.80;1.00
314;DHT22;143;51.634;7.112;2023-04-03T05:38:48;2.80;1.00
314;DHT22;143;51.634;7.112;2023-04-03T05:41:15;2.90;1.00
314;DHT22;143;51.634;7.112;2023-04-03T05:43:41;2.80;1.00
314;DHT22;143;51.634;7.112;2023-04-03T05:46:16;2.80;1.00
314;DHT22;143;51.634;7.112;2023-04-03T05:48:42;2.80;1.00
314;DHT22;143;51.634;7.112;2023-04-03T05:51:15;2.80;1.00
314;DHT22;143;51.634;7.112;2023-04-03T05:53:41;2.80;1.00
314;DHT22;143;51.634;7.112;2023-04-03T05:56:08;2.80;1.00
314;DHT22;143;51.634;7.112;2023-04-03T05:58:34;2.80;1.00
314;DHT22;143;51.634;7.112;2023-04-03T06:01:00;2.90;1.00
314;DHT22;143;51.634;7.112;2023-04-03T06:03:26;2.70;1.00
314;DHT22;143;51.634;7.112;2023-04-03T06:05:52;2.70;1.00
314;DHT22;143;51.634;7.112;2023-04-03T06:08:17;2.70;1.00
314;DHT22;143;51.634;7.112;2023-04-03T06:10:44;2.70;1.00
314;DHT22;143;51.634;7.112;2023-04-03T06:13:10;2.80;1.00
314;DHT22;143;51.634;7.112;2023-04-03T06:15:36;2.80;1.00
314;DHT22;143;51.634;7.112;2023-04-03T06:18:03;2.90;1.00
314;DHT22;143;51.634;7.112;2023-04-03T06:20:29;2.80;1.00
314;DHT22;143;51.634;7.112;2023-04-03T06:22:54;2.90;1.00
314;DHT22;143;51.634;7.112;2023-04-03T06:25:20;2.70;1.00
314;DHT22;143;51.634;7.112;2023-04-03T06:27:46;2.80;1.00
314;DHT22;143;51.634;7.112;2023-04-03T06:30:12;3.00;1.00
314;DHT22;143;51.634;7.112;2023-04-03T06:32:38;3.00;1.00
314;DHT22;143;51.634;7.112;2023-04-03T06:35:05;3.10;1.00
314;DHT22;143;51.634;7.112;2023-04-03T06:37:31;2.90;99.90
314;DHT22;143;51.634;7.112;2023-04-03T06:39:57;3.10;99.90
314;DHT22;143;51.634;7.112;2023-04-03T06:42:23;3.00;99.90
314;DHT22;143;51.634;7.112;2023-04-03T06:44:49;3.00;99.90
314;DHT22;143;51.634;7.112;2023-04-03T06:47:16;3.00;99.90
314;DHT22;143;51.634;7.112;2023-04-03T06:49:42;3.00;99.90
314;DHT22;143;51.634;7.112;2023-04-03T06:52:08;3.10;99.90
314;DHT22;143;51.634;7.112;2023-04-03T06:54:34;3.30;99.90
314;DHT22;143;51.634;7.112;2023-04-03T06:57:01;3.30;99.90
314;DHT22;143;51.634;7.112;2023-04-03T06:59:26;3.30;99.90
314;DHT22;143;51.634;7.112;2023-04-03T07:01:53;3.30;99.90
314;DHT22;143;51.634;7.112;2023-04-03T07:04:19;3.50;99.90
314;DHT22;143;51.634;7.112;2023-04-03T07:06:46;3.50;99.90
314;DHT22;143;51.634;7.112;2023-04-03T07:09:13;3.50;99.90
314;DHT22;143;51.634;7.112;2023-04-03T07:11:39;3.60;99.90
314;DHT22;143;51.634;7.112;2023-04-03T07:14:05;3.60;99.90
314;DHT22;143;51.634;7.112;2023-04-03T07:16:33;3.60;99.90
314;DHT22;143;51.634;7.112;2023-04-03T07:18:59;3.60;99.90
314;DHT22;143;51.634;7.112;2023-04-03T07:21:25;3.60;99.90
314;DHT22;143;51.634;7.112;2023-04-03T07:23:51;3.70;99.90
314;DHT22;143;51.634;7.112;2023-04-03T07:26:17;3.80;99.90
314;DHT22;143;51.634;7.112;2023-04-03T07:28:43;4.20;99.90
314;DHT22;143;51.634;7.112;2023-04-03T07:31:12;4.10;99.90
314;DHT22;143;51.634;7.112;2023-04-03T07:33:39;4.10;99.90
314;DHT22;143;51.634;7.112;2023-04-03T07:36:07;4.60;99.90
314;DHT22;143;51.634;7.112;2023-04-03T07:38:34;4.60;99.90
314;DHT22;143;51.634;7.112;2023-04-03T07:41:00;4.30;99.90
314;DHT22;143;51.634;7.112;2023-04-03T07:43:27;4.40;99.90
314;DHT22;143;51.634;7.112;2023-04-03T07:45:52;4.60;99.90
314;DHT22;143;51.634;7.112;2023-04-03T07:48:21;4.50;99.90
314;DHT22;143;51.634;7.112;2023-04-03T07:50:47;4.40;99.90
314;DHT22;143;51.634;7.112;2023-04-03T07:53:13;5.00;99.90
314;DHT22;143;51.634;7.112;2023-04-03T07:55:39;5.10;99.90
314;DHT22;143;51.634;7.112;2023-04-03T07:58:14;5.00;99.90
314;DHT22;143;51.634;7.112;2023-04-03T08:00:40;5.50;99.90
314;DHT22;143;51.634;7.112;2023-04-03T08:03:06;5.50;99.90
314;DHT22;143;51.634;7.112;2023-04-03T08:05:37;5.40;99.90
314;DHT22;143;51.634;7.112;2023-04-03T08:08:03;5.30;99.90
314;DHT22;143;51.634;7.112;2023-04-03T08:10:30;5.70;99.90
314;DHT22;143;51.634;7.112;2023-04-03T08:12:55;5.90;99.90
314;DHT22;143;51.634;7.112;2023-04-03T08:15:21;6.10;99.90
314;DHT22;143;51.634;7.112;2023-04-03T08:17:47;6.20;99.90
314;DHT22;143;51.634;7.112;2023-04-03T08:20:13;5.90;99.90
314;DHT22;143;51.634;7.112;2023-04-03T08:22:38;6.40;99.90
314;DHT22;143;51.634;7.112;2023-04-03T08:25:05;6.40;99.90
314;DHT22;143;51.634;7.112;2023-04-03T08:27:31;6.20;93.40
314;DHT22;143;51.634;7.112;2023-04-03T08:29:57;5.90;47.40
314;DHT22;143;51.634;7.112;2023-04-03T08:32:23;6.40;24.80
314;DHT22;143;51.634;7.112;2023-04-03T08:34:48;6.40;1.00
314;DHT22;143;51.634;7.112;2023-04-03T08:37:14;6.50;1.00
314;DHT22;143;51.634;7.112;2023-04-03T08:39:42;6.70;1.00
314;DHT22;143;51.634;7.112;2023-04-03T08:47:20;6.70;1.00
314;DHT22;143;51.634;7.112;2023-04-03T08:50:01;7.00;1.00
314;DHT22;143;51.634;7.112;2023-04-03T08:52:50;7.50;1.00
314;DHT22;143;51.634;7.112;2023-04-03T08:55:23;7.30;1.00
314;DHT22;143;51.634;7.112;2023-04-03T08:58:36;7.40;1.00
314;DHT22;143;51.634;7.112;2023-04-03T09:00:51;7.10;1.00
314;DHT22;143;51.634;7.112;2023-04-03T09:03:21;7.30;1.00
314;DHT22;143;51.634;7.112;2023-04-03T09:09:07;7.50;1.00
314;DHT22;143;51.634;7.112;2023-04-03T09:20:39;7.30;1.00
314;DHT22;143;51.634;7.112;2023-04-03T09:23:24;7.30;1.00
314;DHT22;143;51.634;7.112;2023-04-03T09:25:57;7.60;1.00
314;DHT22;143;51.634;7.112;2023-04-03T09:28:23;7.70;1.00
314;DHT22;143;51.634;7.112;2023-04-03T09:30:49;7.80;1.00
314;DHT22;143;51.634;7.112;2023-04-03T09:33:15;7.80;1.00
314;DHT22;143;51.634;7.112;2023-04-03T09:35:43;7.90;1.00
314;DHT22;143;51.634;7.112;2023-04-03T09:40:43;8.40;1.00
314;DHT22;143;51.634;7.112;2023-04-03T09:43:22;8.30;1.00
314;DHT22;143;51.634;7.112;2023-04-03T09:45:49;8.40;1.00
314;DHT22;143;51.634;7.112;2023-04-03T09:48:25;8.40;1.00
314;DHT22;143;51.634;7.112;2023-04-03T09:56:21;9.20;1.00
314;DHT22;143;51.634;7.112;2023-04-03T09:59:06;9.10;1.00
314;DHT22;143;51.634;7.112;2023-04-03T10:01:37;9.40;1.00
314;DHT22;143;51.634;7.112;2023-04-03T10:04:15;9.60;1.00
314;DHT22;143;51.634;7.112;2023-04-03T10:06:50;9.40;1.00
314;DHT22;143;51.634;7.112;2023-04-03T10:09:26;9.50;1.00
314;DHT22;143;51.634;7.112;2023-04-03T10:12:07;9.70;1.00
314;DHT22;143;51.634;7.112;2023-04-03T10:14:36;9.70;1.00
314;DHT22;143;51.634;7.112;2023-04-03T10:34:21;9.70;1.00
314;DHT22;143;51.634;7.112;2023-04-03T10:36:48;9.90;1.00
314;DHT22;143;51.634;7.112;2023-04-03T10:48:09;10.10;1.00
314;DHT22;143;51.634;7.112;2023-04-03T10:50:58;10.00;1.00
314;DHT22;143;51.634;7.112;2023-04-03T10:59:16;10.30;1.00
314;DHT22;143;51.634;7.112;2023-04-03T11:01:46;10.50;1.00
314;DHT22;143;51.634;7.112;2023-04-03T11:04:16;10.60;1.00
314;DHT22;143;51.634;7.112;2023-04-03T11:06:44;10.60;1.00
314;DHT22;143;51.634;7.112;2023-04-03T11:09:40;10.80;1.00
314;DHT22;143;51.634;7.112;2023-04-03T11:12:17;10.70;1.00
314;DHT22;143;51.634;7.112;2023-04-03T11:14:45;10.60;1.00
314;DHT22;143;51.634;7.112;2023-04-03T11:17:39;10.90;1.00
314;DHT22;143;51.634;7.112;2023-04-03T11:20:26;10.90;1.00
314;DHT22;143;51.634;7.112;2023-04-03T11:25:38;11.10;1.00
314;DHT22;143;51.634;7.112;2023-04-03T11:28:14;11.30;1.00
314;DHT22;143;51.634;7.112;2023-04-03T11:33:37;11.40;1.00
314;DHT22;143;51.634;7.112;2023-04-03T11:36:18;11.50;1.00
314;DHT22;143;51.634;7.112;2023-04-03T11:38:46;11.60;1.00
314;DHT22;143;51.634;7.112;2023-04-03T11:41:13;11.40;1.00
314;DHT22;143;51.634;7.112;2023-04-03T11:44:06;11.70;1.00
314;DHT22;143;51.634;7.112;2023-04-03T11:46:59;11.80;1.00
314;DHT22;143;51.634;7.112;2023-04-03T12:13:37;12.40;1.00
314;DHT22;143;51.634;7.112;2023-04-03T12:16:05;12.50;1.00
314;DHT22;143;51.634;7.112;2023-04-03T12:18:53;12.70;1.00
314;DHT22;143;51.634;7.112;2023-04-03T12:21:22;12.90;1.00
314;DHT22;143;51.634;7.112;2023-04-03T12:29:33;13.30;1.00
314;DHT22;143;51.634;7.112;2023-04-03T12:41:04;12.50;1.00
314;DHT22;143;51.634;7.112;2023-04-03T12:43:56;12.40;1.00
314;DHT22;143;51.634;7.112;2023-04-03T12:46:34;12.70;1.00
314;DHT22;143;51.634;7.112;2023-04-03T12:51:57;12.70;1.00
314;DHT22;143;51.634;7.112;2023-04-03T12:54:27;12.90;1.00
314;DHT22;143;51.634;7.112;2023-04-03T12:57:27;13.00;1.00
314;DHT22;143;51.634;7.112;2023-04-03T12:59:53;12.90;1.00
314;DHT22;143;51.634;7.112;2023-04-03T13:02:29;13.00;1.00
314;DHT22;143;51.634;7.112;2023-04-03T13:04:57;13.20;1.00
314;DHT22;143;51.634;7.112;2023-04-03T13:07:35;13.40;1.00
314;DHT22;143;51.634;7.112;2023-04-03T13:12:32;13.20;1.00
314;DHT22;143;51.634;7.112;2023-04-03T13:15:13;13.20;1.00
314;DHT22;143;51.634;7.112;2023-04-03T13:17:40;13.10;1.00
314;DHT22;143;51.634;7.112;2023-04-03T13:20:12;13.00;1.00
314;DHT22;143;51.634;7.112;2023-04-03T13:25:15;12.80;1.00
314;DHT22;143;51.634;7.112;2023-04-03T13:27:42;12.60;1.00
314;DHT22;143;51.634;7.112;2023-04-03T13:30:28;12.50;1.00
314;DHT22;143;51.634;7.112;2023-04-03T13:32:56;12.60;1.00
314;DHT22;143;51.634;7.112;2023-04-03T13:35:28;12.70;1.00
314;DHT22;143;51.634;7.112;2023-04-03T13:37:56;12.90;1.00
314;DHT22;143;51.634;7.112;2023-04-03T13:40:22;12.90;1.00
314;DHT22;143;51.634;7.112;2023-04-03T13:43:03;12.80;1.00
314;DHT22;143;51.634;7.112;2023-04-03T13:45:33;12.60;1.00
314;DHT22;143;51.634;7.112;2023-04-03T13:48:18;12.60;1.00
314;DHT22;143;51.634;7.112;2023-04-03T13:51:03;12.80;1.00
314;DHT22;143;51.634;7.112;2023-04-03T13:53:31;12.80;1.00
314;DHT22;143;51.634;7.112;2023-04-03T13:58:30;12.80;1.00
314;DHT22;143;51.634;7.112;2023-04-03T14:01:10;12.80;1.00
314;DHT22;143;51.634;7.112;2023-04-03T14:03:58;12.60;1.00
314;DHT22;143;51.634;7.112;2023-04-03T14:06:25;12.60;1.00
314;DHT22;143;51.634;7.112;2023-04-03T14:08:52;12.70;1.00
314;DHT22;143;51.634;7.112;2023-04-03T14:11:22;12.70;1.00
314;DHT22;143;51.634;7.112;2023-04-03T14:13:49;12.80;1.00
314;DHT22;143;51.634;7.112;2023-04-03T14:16:19;12.90;1.00
314;DHT22;143;51.634;7.112;2023-04-03T14:18:46;12.90;1.00
314;DHT22;143;51.634;7.112;2023-04-03T14:21:14;13.00;1.00
314;DHT22;143;51.634;7.112;2023-04-03T14:23:41;12.80;1.00
314;DHT22;143;51.634;7.112;2023-04-03T14:26:18;12.80;1.00
314;DHT22;143;51.634;7.112;2023-04-03T14:28:46;12.80;1.00
314;DHT22;143;51.634;7.112;2023-04-03T14:31:13;12.80;1.00
314;DHT22;143;51.634;7.112;2023-04-03T14:33:40;12.60;1.00
314;DHT22;143;51.634;7.112;2023-04-03T14:36:15;12.70;1.00
314;DHT22;143;51.634;7.112;2023-04-03T14:38:43;12.70;1.00
314;DHT22;143;51.634;7.112;2023-04-03T14:41:15;12.60;1.00
314;DHT22;143;51.634;7.112;2023-04-03T14:43:41;12.60;1.00
314;DHT22;143;51.634;7.112;2023-04-03T14:46:20;12.80;1.00
314;DHT22;143;51.634;7.112;2023-04-03T14:48:47;12.80;1.00
314;DHT22;143;51.634;7.112;2023-04-03T14:51:14;12.70;1.00
314;DHT22;143;51.634;7.112;2023-04-03T14:53:41;12.70;1.00
314;DHT22;143;51.634;7.112;2023-04-03T14:56:25;12.80;1.00
314;DHT22;143;51.634;7.112;2023-04-03T14:58:56;12.60;1.00
314;DHT22;143;51.634;7.112;2023-04-03T15:01:22;12.40;1.00
314;DHT22;143;51.634;7.112;2023-04-03T15:03:48;12.40;1.00
314;DHT22;143;51.634;7.112;2023-04-03T15:06:14;12.40;1.00
314;DHT22;143;51.634;7.112;2023-04-03T15:08:41;12.40;1.00
314;DHT22;143;51.634;7.112;2023-04-03T15:11:09;12.40;1.00
314;DHT22;143;51.634;7.112;2023-04-03T15:13:36;12.30;1.00
314;DHT22;143;51.634;7.112;2023-04-03T15:16:01;12.20;1.00
314;DHT22;143;51.634;7.112;2023-04-03T15:18:32;12.20;1.00
314;DHT22;143;51.634;7.112;2023-04-03T15:20:59;12.20;1.00
314;DHT22;143;51.634;7.112;2023-04-03T15:23:25;12.10;1.00
314;DHT22;143;51.634;7.112;2023-04-03T15:25:53;12.10;1.00
314;DHT22;143;51.634;7.112;2023-04-03T15:28:23;12.00;1.00
314;DHT22;143;51.634;7.112;2023-04-03T15:30:50;12.00;1.00
314;DHT22;143;51.634;7.112;2023-04-03T15:33:16;12.00;1.00
314;DHT22;143;51.634;7.112;2023-04-03T15:35:42;12.00;1.00
314;DHT22;143;51.634;7.112;2023-04-03T15:38:08;11.90;1.00
314;DHT22;143;51.634;7.112;2023-04-03T15:40:34;11.80;1.00
314;DHT22;143;51.634;7.112;2023-04-03T15:43:00;11.90;1.00
314;DHT22;143;51.634;7.112;2023-04-03T15:45:29;12.00;1.00
314;DHT22;143;51.634;7.112;2023-04-03T15:47:55;12.00;1.00
314;DHT22;143;51.634;7.112;2023-04-03T15:50:21;12.10;1.00
314;DHT22;143;51.634;7.112;2023-04-03T15:52:52;12.20;1.00
314;DHT22;143;51.634;7.112;2023-04-03T15:55:28;12.40;1.00
314;DHT22;143;51.634;7.112;2023-04-03T15:57:54;12.30;1.00
314;DHT22;143;51.634;7.112;2023-04-03T16:00:21;12.40;1.00
314;DHT22;143;51.634;7.112;2023-04-03T16:02:49;12.40;1.00
314;DHT22;143;51.634;7.112;2023-04-03T16:05:16;12.40;1.00
314;DHT22;143;51.634;7.112;2023-04-03T16:07:43;12.50;1.00
314;DHT22;143;51.634;7.112;2023-04-03T16:10:11;12.60;1.00
314;DHT22;143;51.634;7.112;2023-04-03T16:12:37;12.50;1.00
314;DHT22;143;51.634;7.112;2023-04-03T16:15:03;12.60;1.00
314;DHT22;143;51.634;7.112;2023-04-03T16:17:29;12.50;1.00
314;DHT22;143;51.634;7.112;2023-04-03T16:19:56;12.50;1.00
314;DHT22;143;51.634;7.112;2023-04-03T16:22:23;12.40;1.00
314;DHT22;143;51.634;7.112;2023-04-03T16:24:50;12.30;1.00
314;DHT22;143;51.634;7.112;2023-04-03T16:27:16;12.20;1.00
314;DHT22;143;51.634;7.112;2023-04-03T16:29:42;12.10;1.00
314;DHT22;143;51.634;7.112;2023-04-03T16:32:08;11.90;1.00
314;DHT22;143;51.634;7.112;2023-04-03T16:34:34;11.80;1.00
314;DHT22;143;51.634;7.112;2023-04-03T16:37:00;11.80;1.00
314;DHT22;143;51.634;7.112;2023-04-03T16:39:25;11.80;1.00
314;DHT22;143;51.634;7.112;2023-04-03T16:41:51;11.80;1.00
314;DHT22;143;51.634;7.112;2023-04-03T16:44:17;11.70;1.00
314;DHT22;143;51.634;7.112;2023-04-03T16:46:43;11.70;1.00
314;DHT22;143;51.634;7.112;2023-04-03T16:49:09;11.70;1.00
314;DHT22;143;51.634;7.112;2023-04-03T16:51:34;11.70;1.00
314;DHT22;143;51.634;7.112;2023-04-03T16:54:00;11.70;1.00
314;DHT22;143;51.634;7.112;2023-04-03T16:56:26;11.60;1.00
314;DHT22;143;51.634;7.112;2023-04-03T16:58:54;11.40;1.00
314;DHT22;143;51.634;7.112;2023-04-03T17:01:22;11.40;1.00
314;DHT22;143;51.634;7.112;2023-04-03T17:03:48;11.40;1.00
314;DHT22;143;51.634;7.112;2023-04-03T17:06:19;11.40;1.00
314;DHT22;143;51.634;7.112;2023-04-03T17:08:46;11.20;1.00
314;DHT22;143;51.634;7.112;2023-04-03T17:11:12;11.00;1.00
314;DHT22;143;51.634;7.112;2023-04-03T17:13:38;10.80;1.00
314;DHT22;143;51.634;7.112;2023-04-03T17:16:06;10.70;1.00
314;DHT22;143;51.634;7.112;2023-04-03T17:18:33;10.60;1.00
314;DHT22;143;51.634;7.112;2023-04-03T17:20:59;10.50;1.00
314;DHT22;143;51.634;7.112;2023-04-03T17:23:26;10.40;1.00
314;DHT22;143;51.634;7.112;2023-04-03T17:25:53;10.30;1.00
314;DHT22;143;51.634;7.112;2023-04-03T17:28:20;10.30;1.00
314;DHT22;143;51.634;7.112;2023-04-03T17:30:47;10.30;1.00
314;DHT22;143;51.634;7.112;2023-04-03T17:33:13;10.10;1.00
314;DHT22;143;51.634;7.112;2023-04-03T17:35:39;10.30;1.00
314;DHT22;143;51.634;7.112;2023-04-03T17:38:04;10.00;1.00
314;DHT22;143;51.634;7.112;2023-04-03T17:40:30;10.00;1.00
314;DHT22;143;51.634;7.112;2023-04-03T17:42:56;10.10;1.00
314;DHT22;143;51.634;7.112;2023-04-03T17:45:22;9.90;1.00
314;DHT22;143;51.634;7.112;2023-04-03T17:47:50;9.90;1.00
314;DHT22;143;51.634;7.112;2023-04-03T17:50:17;9.70;1.00
314;DHT22;143;51.634;7.112;2023-04-03T17:52:43;9.70;1.00
314;DHT22;143;51.634;7.112;2023-04-03T17:55:09;9.60;1.00
314;DHT22;143;51.634;7.112;2023-04-03T17:57:35;9.60;1.00
314;DHT22;143;51.634;7.112;2023-04-03T18:00:01;9.70;1.00
314;DHT22;143;51.634;7.112;2023-04-03T18:02:26;9.60;1.00
314;DHT22;143;51.634;7.112;2023-04-03T18:04:52;9.40;1.00
314;DHT22;143;51.634;7.112;2023-04-03T18:07:18;9.40;1.00
314;DHT22;143;51.634;7.112;2023-04-03T18:09:45;9.30;1.00
314;DHT22;143;51.634;7.112;2023-04-03T18:12:12;9.30;1.00
314;DHT22;143;51.634;7.112;2023-04-03T18:14:39;9.40;1.00
314;DHT22;143;51.634;7.112;2023-04-03T18:17:06;9.20;1.00
314;DHT22;143;51.634;7.112;2023-04-03T18:19:32;9.30;1.00
314;DHT22;143;51.634;7.112;2023-04-03T18:22:07;9.40;1.00
314;DHT22;143;51.634;7.112;2023-04-03T18:24:34;9.20;1.00
314;DHT22;143;51.634;7.112;2023-04-03T18:27:08;9.20;1.00
314;DHT22;143;51.634;7.112;2023-04-03T18:29:36;9.50;1.00
314;DHT22;143;51.634;7.112;2023-04-03T18:32:03;9.30;1.00
314;DHT22;143;51.634;7.112;2023-04-03T18:34:31;9.30;1.00
314;DHT22;143;51.634;7.112;2023-04-03T18:36:57;9.30;1.00
314;DHT22;143;51.634;7.112;2023-04-03T18:39:22;9.30;1.00
314;DHT22;143;51.634;7.112;2023-04-03T18:41:48;9.20;1.00
314;DHT22;143;51.634;7.112;2023-04-03T18:44:17;9.20;1.00
314;DHT22;143;51.634;7.112;2023-04-03T18:46:43;9.20;1.00
314;DHT22;143;51.634;7.112;2023-04-03T18:49:10;9.10;1.00
314;DHT22;143;51.634;7.112;2023-04-03T18:51:36;8.90;1.00
314;DHT22;143;51.634;7.112;2023-04-03T18:54:05;8.90;1.00
314;DHT22;143;51.634;7.112;2023-04-03T18:56:36;8.80;1.00
314;DHT22;143;51.634;7.112;2023-04-03T18:59:02;8.70;1.00
314;DHT22;143;51.634;7.112;2023-04-03T19:01:28;8.60;1.00
314;DHT22;143;51.634;7.112;2023-04-03T19:03:54;8.80;1.00
314;DHT22;143;51.634;7.112;2023-04-03T19:06:20;8.70;1.00